sensor_id;sensor_type;location;lat;lon;timestamp;temperature;humidity
40638;DHT22;26336;44.696;10.622;2023-07-20T00:02:24;26.90;93.60
40638;DHT22;26336;44.696;10.622;2023-07-20T00:05:27;26.90;93.70
40638;DHT22;26336;44.696;10.622;2023-07-20T00:08:32;26.80;94.10
40638;DHT22;26336;44.696;10.622;2023-07-20T00:11:37;26.70;94.20
40638;DHT22;26336;44.696;10.622;2023-07-20T00:14:43;26.80;94.20
40638;DHT22;26336;44.696;10.622;2023-07-20T00:17:47;26.60;94.40
40638;DHT22;26336;44.696;10.622;2023-07-20T00:20:51;26.50;94.70
40638;DHT22;26336;44.696;10.622;2023-07-20T00:23:55;26.30;95.30
40638;DHT22;26336;44.696;10.622;2023-07-20T00:26:59;26.20;95.70
40638;DHT22;26336;44.696;10.622;2023-07-20T00:30:05;25.90;96.00
40638;DHT22;26336;44.696;10.622;2023-07-20T00:33:11;25.90;96.10
40638;DHT22;26336;44.696;10.622;2023-07-20T00:36:15;25.90;96.10
40638;DHT22;26336;44.696;10.622;2023-07-20T00:39:19;26.10;95.80
40638;DHT22;26336;44.696;10.622;2023-07-20T00:42:23;26.00;95.80
40638;DHT22;26336;44.696;10.622;2023-07-20T00:45:29;25.90;96.10
40638;DHT22;26336;44.696;10.622;2023-07-20T00:48:34;26.00;95.70
40638;DHT22;26336;44.696;10.622;2023-07-20T00:51:38;26.10;95.70
40638;DHT22;26336;44.696;10.622;2023-07-20T00:54:43;26.30;95.50
40638;DHT22;26336;44.696;10.622;2023-07-20T00:57:47;26.40;95.30
40638;DHT22;26336;44.696;10.622;2023-07-20T01:00:52;26.50;95.10
40638;DHT22;26336;44.696;10.622;2023-07-20T01:03:57;26.60;95.30
40638;DHT22;26336;44.696;10.622;2023-07-20T01:07:16;26.60;95.00
40638;DHT22;26336;44.696;10.622;2023-07-20T01:10:40;26.70;95.10
40638;DHT22;26336;44.696;10.622;2023-07-20T01:13:45;26.60;95.70
40638;DHT22;26336;44.696;10.622;2023-07-20T01:16:49;26.60;96.10
40638;DHT22;26336;44.696;10.622;2023-07-20T01:19:55;26.60;96.40
40638;DHT22;26336;44.696;10.622;2023-07-20T01:33:22;26.40;96.40
40638;DHT22;26336;44.696;10.622;2023-07-20T01:36:33;26.50;96.20
40638;DHT22;26336;44.696;10.622;2023-07-20T01:39:38;26.60;96.10
40638;DHT22;26336;44.696;10.622;2023-07-20T01:42:46;26.60;96.20
40638;DHT22;26336;44.696;10.622;2023-07-20T01:45:50;26.70;96.20
40638;DHT22;26336;44.696;10.622;2023-07-20T01:48:55;26.70;96.20
40638;DHT22;26336;44.696;10.622;2023-07-20T01:51:59;26.70;96.30
40638;DHT22;26336;44.696;10.622;2023-07-20T01:55:03;26.70;96.40
40638;DHT22;26336;44.696;10.622;2023-07-20T01:58:09;26.50;96.50
40638;DHT22;26336;44.696;10.622;2023-07-20T02:01:13;26.40;96.30
40638;DHT22;26336;44.696;10.622;2023-07-20T02:04:17;26.40;96.20
40638;DHT22;26336;44.696;10.622;2023-07-20T02:07:21;26.20;96.30
40638;DHT22;26336;44.696;10.622;2023-07-20T02:10:25;26.20;96.60
40638;DHT22;26336;44.696;10.622;2023-07-20T02:13:29;25.90;96.90
40638;DHT22;26336;44.696;10.622;2023-07-20T02:16:33;25.80;97.10
40638;DHT22;26336;44.696;10.622;2023-07-20T02:19:37;25.60;97.70
40638;DHT22;26336;44.696;10.622;2023-07-20T02:22:41;25.40;97.90
40638;DHT22;26336;44.696;10.622;2023-07-20T02:25:45;25.50;97.90
40638;DHT22;26336;44.696;10.622;2023-07-20T02:28:49;25.50;98.00
40638;DHT22;26336;44.696;10.622;2023-07-20T02:31:53;25.30;98.70
40638;DHT22;26336;44.696;10.622;2023-07-20T02:34:57;25.30;98.80
40638;DHT22;26336;44.696;10.622;2023-07-20T02:38:02;25.10;99.20
40638;DHT22;26336;44.696;10.622;2023-07-20T02:41:07;24.90;99.80
40638;DHT22;26336;44.696;10.622;2023-07-20T02:44:11;24.90;99.90
40638;DHT22;26336;44.696;10.622;2023-07-20T02:47:15;25.00;99.90
40638;DHT22;26336;44.696;10.622;2023-07-20T02:50:18;25.00;99.90
40638;DHT22;26336;44.696;10.622;2023-07-20T02:53:22;25.20;99.70
40638;DHT22;26336;44.696;10.622;2023-07-20T02:56:26;25.40;99.50
40638;DHT22;26336;44.696;10.622;2023-07-20T02:59:31;25.50;99.00
40638;DHT22;26336;44.696;10.622;2023-07-20T03:02:35;25.50;98.90
40638;DHT22;26336;44.696;10.622;2023-07-20T03:05:41;25.50;98.30
40638;DHT22;26336;44.696;10.622;2023-07-20T03:08:45;25.40;98.50
40638;DHT22;26336;44.696;10.622;2023-07-20T03:11:51;25.50;98.40
40638;DHT22;26336;44.696;10.622;2023-07-20T03:14:55;25.50;98.40
40638;DHT22;26336;44.696;10.622;2023-07-20T03:18:00;25.60;98.40
40638;DHT22;26336;44.696;10.622;2023-07-20T03:21:07;25.70;98.20
40638;DHT22;26336;44.696;10.622;2023-07-20T03:24:11;25.80;98.00
40638;DHT22;26336;44.696;10.622;2023-07-20T03:27:14;25.80;97.70
40638;DHT22;26336;44.696;10.622;2023-07-20T03:30:19;25.70;97.40
40638;DHT22;26336;44.696;10.622;2023-07-20T03:33:27;25.70;97.40
40638;DHT22;26336;44.696;10.622;2023-07-20T03:36:32;25.80;97.30
40638;DHT22;26336;44.696;10.622;2023-07-20T03:39:36;25.60;97.30
40638;DHT22;26336;44.696;10.622;2023-07-20T03:42:40;25.60;97.40
40638;DHT22;26336;44.696;10.622;2023-07-20T03:45:45;25.60;97.20
40638;DHT22;26336;44.696;10.622;2023-07-20T03:48:52;25.60;97.30
40638;DHT22;26336;44.696;10.622;2023-07-20T03:51:56;25.50;97.40
40638;DHT22;26336;44.696;10.622;2023-07-20T03:55:00;25.50;97.50
40638;DHT22;26336;44.696;10.622;2023-07-20T03:58:04;25.60;97.50
40638;DHT22;26336;44.696;10.622;2023-07-20T04:01:08;25.60;97.50
40638;DHT22;26336;44.696;10.622;2023-07-20T04:04:15;25.60;97.60
40638;DHT22;26336;44.696;10.622;2023-07-20T04:07:19;25.60;97.50
40638;DHT22;26336;44.696;10.622;2023-07-20T04:10:23;25.60;97.20
40638;DHT22;26336;44.696;10.622;2023-07-20T04:13:29;25.60;97.30
40638;DHT22;26336;44.696;10.622;2023-07-20T04:16:37;25.60;97.00
40638;DHT22;26336;44.696;10.622;2023-07-20T04:19:41;25.70;97.00
40638;DHT22;26336;44.696;10.622;2023-07-20T04:22:45;25.70;96.90
40638;DHT22;26336;44.696;10.622;2023-07-20T04:25:52;25.70;96.90
40638;DHT22;26336;44.696;10.622;2023-07-20T04:28:57;25.50;97.20
40638;DHT22;26336;44.696;10.622;2023-07-20T04:32:21;25.40;97.60
40638;DHT22;26336;44.696;10.622;2023-07-20T04:35:53;25.50;97.30
40638;DHT22;26336;44.696;10.622;2023-07-20T04:39:04;25.60;97.00
40638;DHT22;26336;44.696;10.622;2023-07-20T04:42:14;25.70;96.70
40638;DHT22;26336;44.696;10.622;2023-07-20T04:45:19;25.80;96.60
40638;DHT22;26336;44.696;10.622;2023-07-20T04:48:23;25.90;96.60
40638;DHT22;26336;44.696;10.622;2023-07-20T04:51:30;25.90;96.50
40638;DHT22;26336;44.696;10.622;2023-07-20T04:54:34;25.90;96.20
40638;DHT22;26336;44.696;10.622;2023-07-20T04:57:38;25.90;96.00
40638;DHT22;26336;44.696;10.622;2023-07-20T05:00:43;26.00;96.20
40638;DHT22;26336;44.696;10.622;2023-07-20T05:03:46;26.00;96.20
40638;DHT22;26336;44.696;10.622;2023-07-20T05:06:50;26.00;96.20
40638;DHT22;26336;44.696;10.622;2023-07-20T05:09:54;26.00;96.20
40638;DHT22;26336;44.696;10.622;2023-07-20T05:12:59;26.00;96.20
40638;DHT22;26336;44.696;10.622;2023-07-20T05:16:03;26.10;96.40
40638;DHT22;26336;44.696;10.622;2023-07-20T05:19:08;26.00;96.60
40638;DHT22;26336;44.696;10.622;2023-07-20T05:22:13;26.00;96.50
40638;DHT22;26336;44.696;10.622;2023-07-20T05:25:18;26.00;96.50
40638;DHT22;26336;44.696;10.622;2023-07-20T05:28:23;26.00;96.70
40638;DHT22;26336;44.696;10.622;2023-07-20T05:31:27;26.00;96.80
40638;DHT22;26336;44.696;10.622;2023-07-20T05:34:34;26.00;96.90
40638;DHT22;26336;44.696;10.622;2023-07-20T05:37:38;26.00;96.80
40638;DHT22;26336;44.696;10.622;2023-07-20T05:40:44;26.00;97.00
40638;DHT22;26336;44.696;10.622;2023-07-20T05:43:48;26.00;97.10
40638;DHT22;26336;44.696;10.622;2023-07-20T05:46:52;26.00;97.20
40638;DHT22;26336;44.696;10.622;2023-07-20T05:49:56;26.00;97.30
40638;DHT22;26336;44.696;10.622;2023-07-20T05:53:00;26.00;97.40
40638;DHT22;26336;44.696;10.622;2023-07-20T05:56:04;26.10;97.30
40638;DHT22;26336;44.696;10.622;2023-07-20T05:59:08;26.10;97.30
40638;DHT22;26336;44.696;10.622;2023-07-20T06:02:12;26.10;97.30
40638;DHT22;26336;44.696;10.622;2023-07-20T06:05:16;26.10;97.20
40638;DHT22;26336;44.696;10.622;2023-07-20T06:08:20;26.10;97.10
40638;DHT22;26336;44.696;10.622;2023-07-20T06:11:24;26.10;96.70
40638;DHT22;26336;44.696;10.622;2023-07-20T06:14:28;26.10;96.70
40638;DHT22;26336;44.696;10.622;2023-07-20T06:17:32;26.10;96.70
40638;DHT22;26336;44.696;10.622;2023-07-20T06:20:37;26.20;96.40
40638;DHT22;26336;44.696;10.622;2023-07-20T06:23:41;26.20;96.50
40638;DHT22;26336;44.696;10.622;2023-07-20T06:26:45;26.20;96.30
40638;DHT22;26336;44.696;10.622;2023-07-20T06:29:49;26.20;96.30
40638;DHT22;26336;44.696;10.622;2023-07-20T06:32:53;26.20;96.30
40638;DHT22;26336;44.696;10.622;2023-07-20T06:35:58;26.20;96.20
40638;DHT22;26336;44.696;10.622;2023-07-20T06:39:02;26.30;96.20
40638;DHT22;26336;44.696;10.622;2023-07-20T06:42:06;26.30;96.20
40638;DHT22;26336;44.696;10.622;2023-07-20T06:45:10;26.30;96.10
40638;DHT22;26336;44.696;10.622;2023-07-20T06:48:14;26.30;96.10
40638;DHT22;26336;44.696;10.622;2023-07-20T06:51:19;26.40;96.00
40638;DHT22;26336;44.696;10.622;2023-07-20T06:54:23;26.40;96.00
40638;DHT22;26336;44.696;10.622;2023-07-20T06:57:26;26.40;96.00
40638;DHT22;26336;44.696;10.622;2023-07-20T07:00:30;26.40;96.30
40638;DHT22;26336;44.696;10.622;2023-07-20T07:03:34;26.50;95.80
40638;DHT22;26336;44.696;10.622;2023-07-20T07:06:42;26.50;95.70
40638;DHT22;26336;44.696;10.622;2023-07-20T07:09:46;26.50;95.70
40638;DHT22;26336;44.696;10.622;2023-07-20T07:12:50;26.60;95.90
40638;DHT22;26336;44.696;10.622;2023-07-20T07:15:54;26.60;95.80
40638;DHT22;26336;44.696;10.622;2023-07-20T07:18:58;26.60;95.80
40638;DHT22;26336;44.696;10.622;2023-07-20T07:22:03;26.70;95.80
40638;DHT22;26336;44.696;10.622;2023-07-20T07:25:07;26.70;95.70
40638;DHT22;26336;44.696;10.622;2023-07-20T07:28:12;26.70;95.90
40638;DHT22;26336;44.696;10.622;2023-07-20T07:31:19;26.70;95.70
40638;DHT22;26336;44.696;10.622;2023-07-20T07:34:23;26.70;95.90
40638;DHT22;26336;44.696;10.622;2023-07-20T07:37:27;26.80;95.90
40638;DHT22;26336;44.696;10.622;2023-07-20T07:40:31;26.80;95.70
40638;DHT22;26336;44.696;10.622;2023-07-20T07:43:35;26.90;95.60
40638;DHT22;26336;44.696;10.622;2023-07-20T07:46:40;26.90;95.70
40638;DHT22;26336;44.696;10.622;2023-07-20T07:49:48;27.00;95.80
40638;DHT22;26336;44.696;10.622;2023-07-20T07:52:53;27.00;96.10
40638;DHT22;26336;44.696;10.622;2023-07-20T07:55:57;27.00;96.00
40638;DHT22;26336;44.696;10.622;2023-07-20T07:59:01;27.10;96.10
40638;DHT22;26336;44.696;10.622;2023-07-20T08:02:06;27.10;95.80
40638;DHT22;26336;44.696;10.622;2023-07-20T08:05:10;27.10;95.70
40638;DHT22;26336;44.696;10.622;2023-07-20T08:08:14;27.20;95.70
40638;DHT22;26336;44.696;10.622;2023-07-20T08:11:18;27.30;95.70
40638;DHT22;26336;44.696;10.622;2023-07-20T08:14:22;27.30;95.70
40638;DHT22;26336;44.696;10.622;2023-07-20T08:17:26;27.30;95.80
40638;DHT22;26336;44.696;10.622;2023-07-20T08:20:32;27.40;95.70
40638;DHT22;26336;44.696;10.622;2023-07-20T08:23:39;27.40;95.60
40638;DHT22;26336;44.696;10.622;2023-07-20T08:26:43;27.40;95.70
40638;DHT22;26336;44.696;10.622;2023-07-20T08:29:47;27.40;95.60
40638;DHT22;26336;44.696;10.622;2023-07-20T08:32:51;27.50;95.70
40638;DHT22;26336;44.696;10.622;2023-07-20T08:35:55;27.50;95.80
40638;DHT22;26336;44.696;10.622;2023-07-20T08:39:00;27.50;95.90
40638;DHT22;26336;44.696;10.622;2023-07-20T08:42:05;27.60;96.00
40638;DHT22;26336;44.696;10.622;2023-07-20T08:45:13;27.60;96.00
40638;DHT22;26336;44.696;10.622;2023-07-20T08:48:18;27.70;95.80
40638;DHT22;26336;44.696;10.622;2023-07-20T08:51:24;27.80;95.90
40638;DHT22;26336;44.696;10.622;2023-07-20T08:54:30;27.80;96.10
40638;DHT22;26336;44.696;10.622;2023-07-20T08:57:39;27.90;96.10
40638;DHT22;26336;44.696;10.622;2023-07-20T09:00:45;27.90;96.20
40638;DHT22;26336;44.696;10.622;2023-07-20T09:03:50;28.00;96.00
40638;DHT22;26336;44.696;10.622;2023-07-20T09:06:56;28.00;95.70
40638;DHT22;26336;44.696;10.622;2023-07-20T09:10:01;28.00;95.80
40638;DHT22;26336;44.696;10.622;2023-07-20T09:13:09;28.00;96.00
40638;DHT22;26336;44.696;10.622;2023-07-20T09:16:13;28.10;95.70
40638;DHT22;26336;44.696;10.622;2023-07-20T09:19:18;28.20;95.60
40638;DHT22;26336;44.696;10.622;2023-07-20T09:22:29;28.30;95.80
40638;DHT22;26336;44.696;10.622;2023-07-20T09:25:36;28.40;95.60
40638;DHT22;26336;44.696;10.622;2023-07-20T09:28:51;28.50;96.00
40638;DHT22;26336;44.696;10.622;2023-07-20T09:32:03;28.60;95.80
40638;DHT22;26336;44.696;10.622;2023-07-20T09:35:19;28.70;95.60
40638;DHT22;26336;44.696;10.622;2023-07-20T09:38:26;28.80;95.60
40638;DHT22;26336;44.696;10.622;2023-07-20T09:41:40;28.90;95.80
40638;DHT22;26336;44.696;10.622;2023-07-20T09:44:45;29.00;95.20
40638;DHT22;26336;44.696;10.622;2023-07-20T09:47:50;29.10;95.70
40638;DHT22;26336;44.696;10.622;2023-07-20T09:50:55;29.20;95.20
40638;DHT22;26336;44.696;10.622;2023-07-20T09:54:00;29.20;95.30
40638;DHT22;26336;44.696;10.622;2023-07-20T09:57:07;29.30;94.90
40638;DHT22;26336;44.696;10.622;2023-07-20T10:00:12;29.40;95.30
40638;DHT22;26336;44.696;10.622;2023-07-20T10:03:22;29.40;95.00
40638;DHT22;26336;44.696;10.622;2023-07-20T10:06:30;29.60;95.50
40638;DHT22;26336;44.696;10.622;2023-07-20T10:09:39;29.60;95.00
40638;DHT22;26336;44.696;10.622;2023-07-20T10:12:50;29.70;94.70
40638;DHT22;26336;44.696;10.622;2023-07-20T10:16:10;29.70;94.80
40638;DHT22;26336;44.696;10.622;2023-07-20T10:19:23;29.90;95.10
40638;DHT22;26336;44.696;10.622;2023-07-20T10:22:31;29.90;94.70
40638;DHT22;26336;44.696;10.622;2023-07-20T10:25:37;29.90;94.50
40638;DHT22;26336;44.696;10.622;2023-07-20T10:28:42;29.90;94.70
40638;DHT22;26336;44.696;10.622;2023-07-20T10:31:46;29.90;94.60
40638;DHT22;26336;44.696;10.622;2023-07-20T10:34:51;30.00;94.10
40638;DHT22;26336;44.696;10.622;2023-07-20T10:38:03;30.00;94.10
40638;DHT22;26336;44.696;10.622;2023-07-20T10:44:28;30.00;94.40
40638;DHT22;26336;44.696;10.622;2023-07-20T10:47:45;30.10;93.90
40638;DHT22;26336;44.696;10.622;2023-07-20T10:57:30;30.30;94.00
40638;DHT22;26336;44.696;10.622;2023-07-20T11:00:35;30.30;93.90
40638;DHT22;26336;44.696;10.622;2023-07-20T11:03:40;30.40;93.80
40638;DHT22;26336;44.696;10.622;2023-07-20T11:06:44;30.40;93.80
40638;DHT22;26336;44.696;10.622;2023-07-20T11:09:48;30.50;93.60
40638;DHT22;26336;44.696;10.622;2023-07-20T11:16:35;30.60;93.30
40638;DHT22;26336;44.696;10.622;2023-07-20T11:19:40;30.70;93.20
40638;DHT22;26336;44.696;10.622;2023-07-20T11:22:45;30.80;92.90
40638;DHT22;26336;44.696;10.622;2023-07-20T11:25:50;30.70;92.90
40638;DHT22;26336;44.696;10.622;2023-07-20T11:28:54;30.70;92.80
40638;DHT22;26336;44.696;10.622;2023-07-20T11:31:58;30.80;92.80
40638;DHT22;26336;44.696;10.622;2023-07-20T11:35:03;30.80;92.50
40638;DHT22;26336;44.696;10.622;2023-07-20T11:38:07;30.80;92.00
40638;DHT22;26336;44.696;10.622;2023-07-20T11:41:11;30.80;91.90
40638;DHT22;26336;44.696;10.622;2023-07-20T11:44:17;30.90;91.70
40638;DHT22;26336;44.696;10.622;2023-07-20T11:47:21;31.00;91.50
40638;DHT22;26336;44.696;10.622;2023-07-20T11:50:25;31.00;91.00
40638;DHT22;26336;44.696;10.622;2023-07-20T11:53:29;31.00;90.50
40638;DHT22;26336;44.696;10.622;2023-07-20T11:56:33;31.00;91.20
40638;DHT22;26336;44.696;10.622;2023-07-20T11:59:37;31.00;90.80
40638;DHT22;26336;44.696;10.622;2023-07-20T12:02:40;31.10;90.40
40638;DHT22;26336;44.696;10.622;2023-07-20T12:05:44;31.10;91.10
40638;DHT22;26336;44.696;10.622;2023-07-20T12:08:48;31.20;91.40
40638;DHT22;26336;44.696;10.622;2023-07-20T12:11:53;31.20;91.20
40638;DHT22;26336;44.696;10.622;2023-07-20T12:33:38;31.20;91.30
40638;DHT22;26336;44.696;10.622;2023-07-20T12:36:42;31.40;91.40
40638;DHT22;26336;44.696;10.622;2023-07-20T12:39:49;31.30;91.10
40638;DHT22;26336;44.696;10.622;2023-07-20T12:42:53;31.40;91.40
40638;DHT22;26336;44.696;10.622;2023-07-20T12:45:58;31.40;91.00
40638;DHT22;26336;44.696;10.622;2023-07-20T12:49:01;31.50;90.60
40638;DHT22;26336;44.696;10.622;2023-07-20T12:52:06;31.50;91.00
40638;DHT22;26336;44.696;10.622;2023-07-20T12:55:10;31.50;90.10
40638;DHT22;26336;44.696;10.622;2023-07-20T12:58:16;31.50;90.80
40638;DHT22;26336;44.696;10.622;2023-07-20T13:01:20;31.50;90.40
40638;DHT22;26336;44.696;10.622;2023-07-20T13:04:24;31.60;90.90
40638;DHT22;26336;44.696;10.622;2023-07-20T13:07:33;31.50;90.90
40638;DHT22;26336;44.696;10.622;2023-07-20T13:10:38;31.60;91.40
40638;DHT22;26336;44.696;10.622;2023-07-20T13:14:11;31.60;91.40
40638;DHT22;26336;44.696;10.622;2023-07-20T13:17:18;31.60;91.20
40638;DHT22;26336;44.696;10.622;2023-07-20T13:20:22;31.70;91.30
40638;DHT22;26336;44.696;10.622;2023-07-20T13:23:26;31.70;91.50
40638;DHT22;26336;44.696;10.622;2023-07-20T13:26:33;31.70;91.20
40638;DHT22;26336;44.696;10.622;2023-07-20T13:29:37;31.80;90.90
40638;DHT22;26336;44.696;10.622;2023-07-20T13:32:40;31.70;90.90
40638;DHT22;26336;44.696;10.622;2023-07-20T13:35:44;31.70;90.90
40638;DHT22;26336;44.696;10.622;2023-07-20T13:38:50;31.70;90.20
40638;DHT22;26336;44.696;10.622;2023-07-20T13:41:57;31.80;90.90
40638;DHT22;26336;44.696;10.622;2023-07-20T13:45:05;31.80;91.40
40638;DHT22;26336;44.696;10.622;2023-07-20T13:48:19;31.80;91.20
40638;DHT22;26336;44.696;10.622;2023-07-20T13:51:26;31.70;91.50
40638;DHT22;26336;44.696;10.622;2023-07-20T13:54:30;31.90;91.50
40638;DHT22;26336;44.696;10.622;2023-07-20T13:57:34;31.90;90.90
40638;DHT22;26336;44.696;10.622;2023-07-20T14:00:45;31.90;91.00
40638;DHT22;26336;44.696;10.622;2023-07-20T14:03:50;31.90;91.10
40638;DHT22;26336;44.696;10.622;2023-07-20T14:06:57;31.90;91.00
40638;DHT22;26336;44.696;10.622;2023-07-20T14:10:01;31.90;90.90
40638;DHT22;26336;44.696;10.622;2023-07-20T14:13:06;31.90;91.30
40638;DHT22;26336;44.696;10.622;2023-07-20T14:16:20;31.90;90.80
40638;DHT22;26336;44.696;10.622;2023-07-20T14:19:24;31.90;90.80
40638;DHT22;26336;44.696;10.622;2023-07-20T14:22:28;31.90;91.10
40638;DHT22;26336;44.696;10.622;2023-07-20T14:25:32;31.80;90.40
40638;DHT22;26336;44.696;10.622;2023-07-20T14:28:38;31.90;90.60
40638;DHT22;26336;44.696;10.622;2023-07-20T14:31:45;31.70;90.80
40638;DHT22;26336;44.696;10.622;2023-07-20T14:34:54;31.60;91.00
40638;DHT22;26336;44.696;10.622;2023-07-20T14:37:58;31.50;91.20
40638;DHT22;26336;44.696;10.622;2023-07-20T14:41:02;31.50;91.00
40638;DHT22;26336;44.696;10.622;2023-07-20T14:44:07;31.40;90.90
40638;DHT22;26336;44.696;10.622;2023-07-20T14:47:10;31.30;91.00
40638;DHT22;26336;44.696;10.622;2023-07-20T14:50:14;31.40;91.00
40638;DHT22;26336;44.696;10.622;2023-07-20T14:53:18;31.40;91.30
40638;DHT22;26336;44.696;10.622;2023-07-20T14:56:23;31.40;91.30
40638;DHT22;26336;44.696;10.622;2023-07-20T14:59:29;31.30;91.30
40638;DHT22;26336;44.696;10.622;2023-07-20T15:02:34;31.40;91.60
40638;DHT22;26336;44.696;10.622;2023-07-20T15:05:41;31.40;91.30
40638;DHT22;26336;44.696;10.622;2023-07-20T15:08:46;31.50;91.50
40638;DHT22;26336;44.696;10.622;2023-07-20T15:11:50;31.50;91.40
40638;DHT22;26336;44.696;10.622;2023-07-20T15:15:13;31.50;91.40
40638;DHT22;26336;44.696;10.622;2023-07-20T15:18:17;31.50;91.60
40638;DHT22;26336;44.696;10.622;2023-07-20T15:21:33;31.50;91.30
40638;DHT22;26336;44.696;10.622;2023-07-20T15:24:38;31.50;91.40
40638;DHT22;26336;44.696;10.622;2023-07-20T15:27:42;31.60;91.30
40638;DHT22;26336;44.696;10.622;2023-07-20T15:30:47;31.60;91.50
40638;DHT22;26336;44.696;10.622;2023-07-20T15:33:51;31.60;91.60
40638;DHT22;26336;44.696;10.622;2023-07-20T15:36:56;31.60;91.70
40638;DHT22;26336;44.696;10.622;2023-07-20T15:40:00;31.70;91.70
40638;DHT22;26336;44.696;10.622;2023-07-20T15:43:08;31.60;91.60
40638;DHT22;26336;44.696;10.622;2023-07-20T15:49:43;31.70;91.40
40638;DHT22;26336;44.696;10.622;2023-07-20T15:52:47;31.80;91.60
40638;DHT22;26336;44.696;10.622;2023-07-20T15:55:55;31.80;91.30
40638;DHT22;26336;44.696;10.622;2023-07-20T15:59:03;31.90;91.50
40638;DHT22;26336;44.696;10.622;2023-07-20T16:02:07;31.90;91.60
40638;DHT22;26336;44.696;10.622;2023-07-20T16:05:11;31.90;91.80
40638;DHT22;26336;44.696;10.622;2023-07-20T16:08:15;31.90;91.50
40638;DHT22;26336;44.696;10.622;2023-07-20T16:11:21;31.90;91.60
40638;DHT22;26336;44.696;10.622;2023-07-20T16:14:26;31.90;91.60
40638;DHT22;26336;44.696;10.622;2023-07-20T16:17:30;32.00;91.70
40638;DHT22;26336;44.696;10.622;2023-07-20T16:20:38;32.00;91.70
40638;DHT22;26336;44.696;10.622;2023-07-20T16:23:42;32.00;91.70
40638;DHT22;26336;44.696;10.622;2023-07-20T16:26:48;32.10;91.70
40638;DHT22;26336;44.696;10.622;2023-07-20T16:29:52;32.00;91.70
40638;DHT22;26336;44.696;10.622;2023-07-20T16:32:56;32.00;91.80
40638;DHT22;26336;44.696;10.622;2023-07-20T16:36:07;32.00;91.90
40638;DHT22;26336;44.696;10.622;2023-07-20T16:39:11;32.00;92.00
40638;DHT22;26336;44.696;10.622;2023-07-20T16:42:15;32.00;92.10
40638;DHT22;26336;44.696;10.622;2023-07-20T16:45:23;32.00;92.00
40638;DHT22;26336;44.696;10.622;2023-07-20T16:48:27;32.00;92.00
40638;DHT22;26336;44.696;10.622;2023-07-20T16:51:34;32.00;92.00
40638;DHT22;26336;44.696;10.622;2023-07-20T16:54:39;32.10;92.10
40638;DHT22;26336;44.696;10.622;2023-07-20T16:57:43;32.00;92.10
40638;DHT22;26336;44.696;10.622;2023-07-20T17:00:47;32.10;92.30
40638;DHT22;26336;44.696;10.622;2023-07-20T17:03:51;32.10;92.30
40638;DHT22;26336;44.696;10.622;2023-07-20T17:06:55;32.10;92.30
40638;DHT22;26336;44.696;10.622;2023-07-20T17:10:02;32.00;92.20
40638;DHT22;26336;44.696;10.622;2023-07-20T17:13:06;32.00;92.30
40638;DHT22;26336;44.696;10.622;2023-07-20T17:16:11;31.90;92.50
40638;DHT22;26336;44.696;10.622;2023-07-20T17:19:18;31.90;92.50
40638;DHT22;26336;44.696;10.622;2023-07-20T17:22:25;31.90;92.40
40638;DHT22;26336;44.696;10.622;2023-07-20T17:25:29;31.90;92.60
40638;DHT22;26336;44.696;10.622;2023-07-20T17:28:33;31.90;92.60
40638;DHT22;26336;44.696;10.622;2023-07-20T17:31:37;31.90;92.90
40638;DHT22;26336;44.696;10.622;2023-07-20T17:34:41;31.80;92.80
40638;DHT22;26336;44.696;10.622;2023-07-20T17:37:45;31.80;92.80
40638;DHT22;26336;44.696;10.622;2023-07-20T17:40:50;31.70;92.90
40638;DHT22;26336;44.696;10.622;2023-07-20T17:43:55;31.70;92.90
40638;DHT22;26336;44.696;10.622;2023-07-20T17:47:00;31.70;93.20
40638;DHT22;26336;44.696;10.622;2023-07-20T17:50:08;31.70;93.60
40638;DHT22;26336;44.696;10.622;2023-07-20T17:53:15;31.70;93.30
40638;DHT22;26336;44.696;10.622;2023-07-20T17:56:19;31.60;93.40
40638;DHT22;26336;44.696;10.622;2023-07-20T17:59:24;31.60;93.30
40638;DHT22;26336;44.696;10.622;2023-07-20T18:02:29;31.60;93.30
40638;DHT22;26336;44.696;10.622;2023-07-20T18:05:33;31.60;93.30
40638;DHT22;26336;44.696;10.622;2023-07-20T18:08:37;31.60;93.30
40638;DHT22;26336;44.696;10.622;2023-07-20T18:11:41;31.50;93.40
40638;DHT22;26336;44.696;10.622;2023-07-20T18:14:48;31.50;93.70
40638;DHT22;26336;44.696;10.622;2023-07-20T18:17:52;31.50;93.80
40638;DHT22;26336;44.696;10.622;2023-07-20T18:20:56;31.50;94.00
40638;DHT22;26336;44.696;10.622;2023-07-20T18:24:02;31.40;94.20
40638;DHT22;26336;44.696;10.622;2023-07-20T18:27:07;31.30;94.20
40638;DHT22;26336;44.696;10.622;2023-07-20T18:30:11;31.30;94.50
40638;DHT22;26336;44.696;10.622;2023-07-20T18:33:22;31.30;94.60
40638;DHT22;26336;44.696;10.622;2023-07-20T18:36:26;31.30;94.70
40638;DHT22;26336;44.696;10.622;2023-07-20T18:39:30;31.30;94.70
40638;DHT22;26336;44.696;10.622;2023-07-20T18:42:34;31.20;94.80
40638;DHT22;26336;44.696;10.622;2023-07-20T18:45:42;31.20;94.80
40638;DHT22;26336;44.696;10.622;2023-07-20T18:48:46;31.10;95.10
40638;DHT22;26336;44.696;10.622;2023-07-20T18:51:50;31.10;94.70
40638;DHT22;26336;44.696;10.622;2023-07-20T18:54:55;31.10;94.90
40638;DHT22;26336;44.696;10.622;2023-07-20T18:58:01;31.00;95.00
40638;DHT22;26336;44.696;10.622;2023-07-20T19:01:05;31.00;95.00
40638;DHT22;26336;44.696;10.622;2023-07-20T19:04:09;31.00;95.00
40638;DHT22;26336;44.696;10.622;2023-07-20T19:07:13;30.90;95.10
40638;DHT22;26336;44.696;10.622;2023-07-20T19:10:18;30.90;95.20
40638;DHT22;26336;44.696;10.622;2023-07-20T19:13:25;30.90;95.30
40638;DHT22;26336;44.696;10.622;2023-07-20T19:16:29;30.80;95.40
40638;DHT22;26336;44.696;10.622;2023-07-20T19:19:34;30.80;95.30
40638;DHT22;26336;44.696;10.622;2023-07-20T19:22:42;30.80;95.70
40638;DHT22;26336;44.696;10.622;2023-07-20T19:25:46;30.80;95.50
40638;DHT22;26336;44.696;10.622;2023-07-20T19:28:50;30.70;95.60
40638;DHT22;26336;44.696;10.622;2023-07-20T19:31:54;30.70;95.60
40638;DHT22;26336;44.696;10.622;2023-07-20T19:34:59;30.70;95.70
40638;DHT22;26336;44.696;10.622;2023-07-20T19:38:05;30.60;95.80
40638;DHT22;26336;44.696;10.622;2023-07-20T19:41:10;30.60;95.90
40638;DHT22;26336;44.696;10.622;2023-07-20T19:44:16;30.60;96.00
40638;DHT22;26336;44.696;10.622;2023-07-20T19:47:20;30.50;96.00
40638;DHT22;26336;44.696;10.622;2023-07-20T19:50:24;30.50;96.10
40638;DHT22;26336;44.696;10.622;2023-07-20T19:53:30;30.50;96.20
40638;DHT22;26336;44.696;10.622;2023-07-20T19:56:34;30.40;96.30
40638;DHT22;26336;44.696;10.622;2023-07-20T19:59:39;30.50;96.20